sensor_id;sensor_type;location;lat;lon;timestamp;P1;durP1;ratioP1;P2;durP2;ratioP2
40695;SDS011;40425;51.102;17.208;2023-04-03T00:02:19;7.20;;;1.40;;
40695;SDS011;40425;51.102;17.208;2023-04-03T00:07:20;6.87;;;1.10;;
40695;SDS011;40425;51.102;17.208;2023-04-03T00:12:21;4.70;;;1.20;;
40695;SDS011;40425;51.102;17.208;2023-04-03T00:17:22;6.87;;;1.00;;
40695;SDS011;40425;51.102;17.208;2023-04-03T00:22:23;8.37;;;1.37;;
40695;SDS011;40425;51.102;17.208;2023-04-03T00:27:26;5.80;;;1.57;;
40695;SDS011;40425;51.102;17.208;2023-04-03T00:32:27;8.37;;;1.37;;
40695;SDS011;40425;51.102;17.208;2023-04-03T00:37:28;4.87;;;1.17;;
40695;SDS011;40425;51.102;17.208;2023-04-03T00:42:28;7.83;;;1.17;;
40695;SDS011;40425;51.102;17.208;2023-04-03T00:47:30;6.23;;;0.83;;
40695;SDS011;40425;51.102;17.208;2023-04-03T00:52:31;12.93;;;1.37;;
40695;SDS011;40425;51.102;17.208;2023-04-03T00:57:32;4.10;;;1.23;;
40695;SDS011;40425;51.102;17.208;2023-04-03T01:02:33;3.70;;;0.83;;
40695;SDS011;40425;51.102;17.208;2023-04-03T01:07:34;12.13;;;1.23;;
40695;SDS011;40425;51.102;17.208;2023-04-03T01:12:37;7.03;;;0.67;;
40695;SDS011;40425;51.102;17.208;2023-04-03T01:17:44;5.73;;;1.07;;
40695;SDS011;40425;51.102;17.208;2023-04-03T01:28:03;6.83;;;0.93;;
40695;SDS011;40425;51.102;17.208;2023-04-03T01:33:06;7.90;;;1.50;;
40695;SDS011;40425;51.102;17.208;2023-04-03T01:38:07;7.57;;;0.80;;
40695;SDS011;40425;51.102;17.208;2023-04-03T01:43:08;7.63;;;1.00;;
40695;SDS011;40425;51.102;17.208;2023-04-03T01:48:09;8.03;;;1.13;;
40695;SDS011;40425;51.102;17.208;2023-04-03T01:53:10;5.60;;;1.20;;
40695;SDS011;40425;51.102;17.208;2023-04-03T01:58:11;7.90;;;1.00;;
40695;SDS011;40425;51.102;17.208;2023-04-03T02:03:12;4.57;;;0.83;;
40695;SDS011;40425;51.102;17.208;2023-04-03T02:08:12;9.10;;;0.80;;
40695;SDS011;40425;51.102;17.208;2023-04-03T02:13:14;4.93;;;1.07;;
40695;SDS011;40425;51.102;17.208;2023-04-03T02:18:16;4.37;;;1.00;;
40695;SDS011;40425;51.102;17.208;2023-04-03T02:23:17;11.80;;;1.80;;
40695;SDS011;40425;51.102;17.208;2023-04-03T02:28:18;6.33;;;0.87;;
40695;SDS011;40425;51.102;17.208;2023-04-03T02:33:18;7.53;;;1.23;;
40695;SDS011;40425;51.102;17.208;2023-04-03T02:38:20;7.87;;;1.60;;
40695;SDS011;40425;51.102;17.208;2023-04-03T02:43:21;10.70;;;1.90;;
40695;SDS011;40425;51.102;17.208;2023-04-03T02:48:22;11.30;;;1.40;;
40695;SDS011;40425;51.102;17.208;2023-04-03T02:53:23;6.40;;;1.33;;
40695;SDS011;40425;51.102;17.208;2023-04-03T02:58:25;6.83;;;1.20;;
40695;SDS011;40425;51.102;17.208;2023-04-03T03:03:25;6.07;;;1.60;;
40695;SDS011;40425;51.102;17.208;2023-04-03T03:08:26;5.97;;;1.37;;
40695;SDS011;40425;51.102;17.208;2023-04-03T03:13:27;7.87;;;1.43;;
40695;SDS011;40425;51.102;17.208;2023-04-03T03:18:28;7.83;;;1.30;;
40695;SDS011;40425;51.102;17.208;2023-04-03T03:23:30;7.77;;;1.37;;
40695;SDS011;40425;51.102;17.208;2023-04-03T03:28:32;12.00;;;1.53;;
40695;SDS011;40425;51.102;17.208;2023-04-03T03:33:33;10.43;;;1.50;;
40695;SDS011;40425;51.102;17.208;2023-04-03T03:38:34;8.80;;;1.30;;
40695;SDS011;40425;51.102;17.208;2023-04-03T03:43:35;12.53;;;2.60;;
40695;SDS011;40425;51.102;17.208;2023-04-03T03:48:35;8.87;;;1.80;;
40695;SDS011;40425;51.102;17.208;2023-04-03T03:53:36;10.60;;;1.47;;
40695;SDS011;40425;51.102;17.208;2023-04-03T03:58:37;4.47;;;1.23;;
40695;SDS011;40425;51.102;17.208;2023-04-03T04:03:38;5.67;;;2.03;;
40695;SDS011;40425;51.102;17.208;2023-04-03T04:08:39;7.67;;;1.50;;
40695;SDS011;40425;51.102;17.208;2023-04-03T04:13:40;10.00;;;1.20;;
40695;SDS011;40425;51.102;17.208;2023-04-03T04:18:41;8.23;;;2.10;;
40695;SDS011;40425;51.102;17.208;2023-04-03T04:23:42;14.87;;;2.20;;
40695;SDS011;40425;51.102;17.208;2023-04-03T04:28:43;6.10;;;2.07;;
40695;SDS011;40425;51.102;17.208;2023-04-03T04:33:44;10.37;;;2.73;;
40695;SDS011;40425;51.102;17.208;2023-04-03T04:38:45;5.07;;;1.40;;
40695;SDS011;40425;51.102;17.208;2023-04-03T04:43:46;12.83;;;1.67;;
40695;SDS011;40425;51.102;17.208;2023-04-03T04:48:47;5.83;;;2.00;;
40695;SDS011;40425;51.102;17.208;2023-04-03T04:53:48;8.93;;;1.67;;
40695;SDS011;40425;51.102;17.208;2023-04-03T04:58:49;9.93;;;1.53;;
40695;SDS011;40425;51.102;17.208;2023-04-03T05:03:50;14.73;;;2.90;;
40695;SDS011;40425;51.102;17.208;2023-04-03T05:08:51;6.90;;;1.37;;
40695;SDS011;40425;51.102;17.208;2023-04-03T05:13:52;7.33;;;1.60;;
40695;SDS011;40425;51.102;17.208;2023-04-03T05:18:53;7.60;;;1.03;;
40695;SDS011;40425;51.102;17.208;2023-04-03T05:23:54;9.33;;;1.37;;
40695;SDS011;40425;51.102;17.208;2023-04-03T05:28:55;6.90;;;0.83;;
40695;SDS011;40425;51.102;17.208;2023-04-03T05:33:56;6.73;;;1.80;;
40695;SDS011;40425;51.102;17.208;2023-04-03T05:38:57;7.30;;;1.10;;
40695;SDS011;40425;51.102;17.208;2023-04-03T05:43:58;7.13;;;1.93;;
40695;SDS011;40425;51.102;17.208;2023-04-03T05:48:59;7.27;;;1.27;;
40695;SDS011;40425;51.102;17.208;2023-04-03T05:54:06;5.90;;;1.23;;
40695;SDS011;40425;51.102;17.208;2023-04-03T05:59:18;7.90;;;1.17;;
40695;SDS011;40425;51.102;17.208;2023-04-03T06:04:19;7.50;;;1.50;;
40695;SDS011;40425;51.102;17.208;2023-04-03T06:09:22;10.90;;;2.23;;
40695;SDS011;40425;51.102;17.208;2023-04-03T06:14:25;10.53;;;1.43;;
40695;SDS011;40425;51.102;17.208;2023-04-03T06:19:26;10.47;;;1.50;;
40695;SDS011;40425;51.102;17.208;2023-04-03T06:24:28;8.07;;;1.83;;
40695;SDS011;40425;51.102;17.208;2023-04-03T06:29:30;9.60;;;2.33;;
40695;SDS011;40425;51.102;17.208;2023-04-03T06:34:31;10.13;;;1.97;;
40695;SDS011;40425;51.102;17.208;2023-04-03T06:39:32;10.90;;;1.83;;
40695;SDS011;40425;51.102;17.208;2023-04-03T06:44:33;5.43;;;1.60;;
40695;SDS011;40425;51.102;17.208;2023-04-03T06:49:34;8.47;;;2.53;;
40695;SDS011;40425;51.102;17.208;2023-04-03T06:54:37;7.47;;;2.33;;
40695;SDS011;40425;51.102;17.208;2023-04-03T06:59:38;7.57;;;1.83;;
40695;SDS011;40425;51.102;17.208;2023-04-03T07:04:40;6.37;;;1.30;;
40695;SDS011;40425;51.102;17.208;2023-04-03T07:09:41;5.40;;;1.73;;
40695;SDS011;40425;51.102;17.208;2023-04-03T07:14:43;7.40;;;0.97;;
40695;SDS011;40425;51.102;17.208;2023-04-03T07:19:44;7.10;;;1.70;;
40695;SDS011;40425;51.102;17.208;2023-04-03T07:24:45;4.23;;;1.30;;
40695;SDS011;40425;51.102;17.208;2023-04-03T07:29:46;6.83;;;1.30;;
40695;SDS011;40425;51.102;17.208;2023-04-03T07:34:49;6.37;;;1.20;;
40695;SDS011;40425;51.102;17.208;2023-04-03T07:39:50;7.80;;;1.30;;
40695;SDS011;40425;51.102;17.208;2023-04-03T07:44:51;8.10;;;1.67;;
40695;SDS011;40425;51.102;17.208;2023-04-03T07:49:51;5.03;;;1.30;;
40695;SDS011;40425;51.102;17.208;2023-04-03T07:54:52;4.37;;;1.27;;
40695;SDS011;40425;51.102;17.208;2023-04-03T07:59:53;5.20;;;1.00;;
40695;SDS011;40425;51.102;17.208;2023-04-03T08:04:54;3.33;;;1.00;;
40695;SDS011;40425;51.102;17.208;2023-04-03T08:09:55;4.90;;;1.23;;
40695;SDS011;40425;51.102;17.208;2023-04-03T08:14:56;5.97;;;1.03;;
40695;SDS011;40425;51.102;17.208;2023-04-03T08:19:57;6.03;;;1.10;;
40695;SDS011;40425;51.102;17.208;2023-04-03T08:24:58;5.50;;;0.90;;
40695;SDS011;40425;51.102;17.208;2023-04-03T08:29:59;3.37;;;0.77;;
40695;SDS011;40425;51.102;17.208;2023-04-03T08:35:01;5.37;;;1.57;;
40695;SDS011;40425;51.102;17.208;2023-04-03T08:40:06;3.27;;;0.60;;
40695;SDS011;40425;51.102;17.208;2023-04-03T08:46:13;3.13;;;0.73;;
40695;SDS011;40425;51.102;17.208;2023-04-03T08:51:03;2.03;;;0.40;;
40695;SDS011;40425;51.102;17.208;2023-04-03T08:56:12;4.80;;;0.53;;
40695;SDS011;40425;51.102;17.208;2023-04-03T09:01:29;5.03;;;0.60;;
40695;SDS011;40425;51.102;17.208;2023-04-03T09:06:35;4.73;;;0.50;;
40695;SDS011;40425;51.102;17.208;2023-04-03T09:16:54;5.37;;;0.80;;
40695;SDS011;40425;51.102;17.208;2023-04-03T09:22:09;3.73;;;0.40;;
40695;SDS011;40425;51.102;17.208;2023-04-03T09:27:16;2.03;;;0.47;;
40695;SDS011;40425;51.102;17.208;2023-04-03T09:32:34;3.30;;;0.60;;
40695;SDS011;40425;51.102;17.208;2023-04-03T09:37:38;2.90;;;0.57;;
40695;SDS011;40425;51.102;17.208;2023-04-03T09:42:41;3.47;;;0.80;;
40695;SDS011;40425;51.102;17.208;2023-04-03T09:47:43;2.73;;;0.70;;
40695;SDS011;40425;51.102;17.208;2023-04-03T09:52:46;2.37;;;0.60;;
40695;SDS011;40425;51.102;17.208;2023-04-03T09:57:48;3.53;;;0.50;;
40695;SDS011;40425;51.102;17.208;2023-04-03T10:02:58;3.30;;;1.00;;
40695;SDS011;40425;51.102;17.208;2023-04-03T10:08:10;1.87;;;0.60;;
40695;SDS011;40425;51.102;17.208;2023-04-03T10:13:16;2.17;;;0.60;;
40695;SDS011;40425;51.102;17.208;2023-04-03T10:39:33;2.60;;;0.50;;
40695;SDS011;40425;51.102;17.208;2023-04-03T10:45:06;3.20;;;0.20;;
40695;SDS011;40425;51.102;17.208;2023-04-03T11:00:50;3.27;;;0.47;;
40695;SDS011;40425;51.102;17.208;2023-04-03T11:05:54;3.03;;;0.40;;
40695;SDS011;40425;51.102;17.208;2023-04-03T11:10:58;1.20;;;0.40;;
40695;SDS011;40425;51.102;17.208;2023-04-03T11:16:02;5.47;;;0.40;;
40695;SDS011;40425;51.102;17.208;2023-04-03T11:21:06;2.83;;;0.50;;
40695;SDS011;40425;51.102;17.208;2023-04-03T11:26:15;4.68;;;0.43;;
40695;SDS011;40425;51.102;17.208;2023-04-03T11:36:55;3.30;;;0.93;;
40695;SDS011;40425;51.102;17.208;2023-04-03T11:42:15;1.80;;;0.87;;
40695;SDS011;40425;51.102;17.208;2023-04-03T12:02:58;3.93;;;0.60;;
40695;SDS011;40425;51.102;17.208;2023-04-03T12:24:35;3.37;;;0.77;;
40695;SDS011;40425;51.102;17.208;2023-04-03T12:29:45;4.80;;;0.80;;
40695;SDS011;40425;51.102;17.208;2023-04-03T12:40:43;3.37;;;0.93;;
40695;SDS011;40425;51.102;17.208;2023-04-03T12:46:03;3.57;;;0.60;;
40695;SDS011;40425;51.102;17.208;2023-04-03T12:51:16;3.43;;;0.80;;
40695;SDS011;40425;51.102;17.208;2023-04-03T12:56:30;1.63;;;0.60;;
40695;SDS011;40425;51.102;17.208;2023-04-03T13:01:34;2.70;;;0.50;;
40695;SDS011;40425;51.102;17.208;2023-04-03T13:06:40;4.67;;;1.20;;
40695;SDS011;40425;51.102;17.208;2023-04-03T13:11:43;4.77;;;0.93;;
40695;SDS011;40425;51.102;17.208;2023-04-03T13:16:56;2.67;;;0.57;;
40695;SDS011;40425;51.102;17.208;2023-04-03T13:22:00;3.03;;;0.40;;
40695;SDS011;40425;51.102;17.208;2023-04-03T13:27:05;1.83;;;0.57;;
40695;SDS011;40425;51.102;17.208;2023-04-03T13:32:07;2.37;;;0.40;;
40695;SDS011;40425;51.102;17.208;2023-04-03T13:37:33;2.90;;;0.93;;
40695;SDS011;40425;51.102;17.208;2023-04-03T13:42:36;3.53;;;0.50;;
40695;SDS011;40425;51.102;17.208;2023-04-03T13:47:42;3.37;;;0.50;;
40695;SDS011;40425;51.102;17.208;2023-04-03T13:52:54;5.43;;;0.57;;
40695;SDS011;40425;51.102;17.208;2023-04-03T13:58:23;2.17;;;0.40;;
40695;SDS011;40425;51.102;17.208;2023-04-03T14:03:32;2.30;;;0.80;;
40695;SDS011;40425;51.102;17.208;2023-04-03T14:08:46;3.40;;;0.70;;
40695;SDS011;40425;51.102;17.208;2023-04-03T14:13:48;2.40;;;0.50;;
40695;SDS011;40425;51.102;17.208;2023-04-03T14:18:50;2.03;;;0.60;;
40695;SDS011;40425;51.102;17.208;2023-04-03T14:23:52;1.50;;;0.40;;
40695;SDS011;40425;51.102;17.208;2023-04-03T14:28:53;2.57;;;0.50;;
40695;SDS011;40425;51.102;17.208;2023-04-03T14:33:55;2.10;;;0.60;;
40695;SDS011;40425;51.102;17.208;2023-04-03T14:38:56;1.50;;;0.57;;
40695;SDS011;40425;51.102;17.208;2023-04-03T14:43:58;1.50;;;0.67;;
40695;SDS011;40425;51.102;17.208;2023-04-03T14:48:59;2.87;;;0.60;;
40695;SDS011;40425;51.102;17.208;2023-04-03T14:54:00;2.70;;;0.60;;
40695;SDS011;40425;51.102;17.208;2023-04-03T14:59:01;3.33;;;0.60;;
40695;SDS011;40425;51.102;17.208;2023-04-03T15:04:05;2.40;;;0.80;;
40695;SDS011;40425;51.102;17.208;2023-04-03T15:14:19;2.70;;;0.40;;
40695;SDS011;40425;51.102;17.208;2023-04-03T15:19:20;2.73;;;0.50;;
40695;SDS011;40425;51.102;17.208;2023-04-03T15:24:21;4.23;;;0.63;;
40695;SDS011;40425;51.102;17.208;2023-04-03T15:29:22;2.53;;;0.60;;
40695;SDS011;40425;51.102;17.208;2023-04-03T15:34:23;1.60;;;0.50;;
40695;SDS011;40425;51.102;17.208;2023-04-03T15:39:24;2.03;;;0.40;;
40695;SDS011;40425;51.102;17.208;2023-04-03T15:44:26;2.37;;;0.70;;
40695;SDS011;40425;51.102;17.208;2023-04-03T15:49:27;3.67;;;0.40;;
40695;SDS011;40425;51.102;17.208;2023-04-03T15:54:28;4.73;;;0.70;;
40695;SDS011;40425;51.102;17.208;2023-04-03T15:59:29;2.13;;;0.57;;
40695;SDS011;40425;51.102;17.208;2023-04-03T16:04:32;3.43;;;0.43;;
40695;SDS011;40425;51.102;17.208;2023-04-03T16:09:34;5.23;;;0.60;;
40695;SDS011;40425;51.102;17.208;2023-04-03T16:14:36;2.97;;;0.93;;
40695;SDS011;40425;51.102;17.208;2023-04-03T16:19:36;3.17;;;0.80;;
40695;SDS011;40425;51.102;17.208;2023-04-03T16:24:37;2.10;;;0.63;;
40695;SDS011;40425;51.102;17.208;2023-04-03T16:29:38;1.97;;;0.70;;
40695;SDS011;40425;51.102;17.208;2023-04-03T16:34:39;2.03;;;0.80;;
40695;SDS011;40425;51.102;17.208;2023-04-03T16:39:41;3.20;;;0.77;;
40695;SDS011;40425;51.102;17.208;2023-04-03T16:44:42;3.13;;;0.67;;
40695;SDS011;40425;51.102;17.208;2023-04-03T16:49:43;3.03;;;0.77;;
40695;SDS011;40425;51.102;17.208;2023-04-03T16:54:45;3.63;;;1.20;;
40695;SDS011;40425;51.102;17.208;2023-04-03T16:59:46;2.30;;;0.67;;
40695;SDS011;40425;51.102;17.208;2023-04-03T17:04:47;6.13;;;1.63;;
40695;SDS011;40425;51.102;17.208;2023-04-03T17:09:48;6.00;;;1.60;;
40695;SDS011;40425;51.102;17.208;2023-04-03T17:14:54;6.03;;;1.37;;
40695;SDS011;40425;51.102;17.208;2023-04-03T17:19:58;3.70;;;0.97;;
40695;SDS011;40425;51.102;17.208;2023-04-03T17:24:59;3.97;;;0.70;;
40695;SDS011;40425;51.102;17.208;2023-04-03T17:30:03;2.87;;;0.60;;
40695;SDS011;40425;51.102;17.208;2023-04-03T17:35:05;3.63;;;1.00;;
40695;SDS011;40425;51.102;17.208;2023-04-03T17:40:08;3.43;;;0.90;;
40695;SDS011;40425;51.102;17.208;2023-04-03T17:45:13;2.53;;;0.93;;
40695;SDS011;40425;51.102;17.208;2023-04-03T17:50:14;6.27;;;1.43;;
40695;SDS011;40425;51.102;17.208;2023-04-03T17:55:16;2.10;;;0.90;;
40695;SDS011;40425;51.102;17.208;2023-04-03T18:00:18;7.87;;;2.40;;
40695;SDS011;40425;51.102;17.208;2023-04-03T18:05:19;9.00;;;3.00;;
40695;SDS011;40425;51.102;17.208;2023-04-03T18:10:20;9.07;;;2.30;;
40695;SDS011;40425;51.102;17.208;2023-04-03T18:15:22;7.07;;;2.13;;
40695;SDS011;40425;51.102;17.208;2023-04-03T18:20:25;4.87;;;1.53;;
40695;SDS011;40425;51.102;17.208;2023-04-03T18:25:25;4.43;;;1.70;;
40695;SDS011;40425;51.102;17.208;2023-04-03T18:30:26;3.30;;;1.20;;
40695;SDS011;40425;51.102;17.208;2023-04-03T18:35:28;4.07;;;1.13;;
40695;SDS011;40425;51.102;17.208;2023-04-03T18:40:30;8.10;;;1.90;;
40695;SDS011;40425;51.102;17.208;2023-04-03T18:45:33;4.73;;;1.30;;
40695;SDS011;40425;51.102;17.208;2023-04-03T18:50:35;4.90;;;1.60;;
40695;SDS011;40425;51.102;17.208;2023-04-03T18:55:36;4.23;;;1.70;;
40695;SDS011;40425;51.102;17.208;2023-04-03T19:00:37;7.20;;;2.00;;
40695;SDS011;40425;51.102;17.208;2023-04-03T19:05:39;4.83;;;1.93;;
40695;SDS011;40425;51.102;17.208;2023-04-03T19:10:40;7.87;;;2.30;;
40695;SDS011;40425;51.102;17.208;2023-04-03T19:15:42;7.40;;;1.70;;
40695;SDS011;40425;51.102;17.208;2023-04-03T19:20:43;5.27;;;2.20;;
40695;SDS011;40425;51.102;17.208;2023-04-03T19:25:45;6.40;;;2.40;;
40695;SDS011;40425;51.102;17.208;2023-04-03T19:30:47;7.60;;;2.27;;
40695;SDS011;40425;51.102;17.208;2023-04-03T19:35:49;8.57;;;3.00;;
40695;SDS011;40425;51.102;17.208;2023-04-03T19:40:50;6.07;;;1.90;;
40695;SDS011;40425;51.102;17.208;2023-04-03T19:45:51;6.63;;;1.67;;
40695;SDS011;40425;51.102;17.208;2023-04-03T19:50:53;4.10;;;1.27;;
40695;SDS011;40425;51.102;17.208;2023-04-03T19:55:54;5.03;;;1.93;;
40695;SDS011;40425;51.102;17.208;2023-04-03T20:00:56;8.50;;;2.47;;
40695;SDS011;40425;51.102;17.208;2023-04-03T20:05:58;9.37;;;2.67;;
40695;SDS011;40425;51.102;17.208;2023-04-03T20:11:00;9.17;;;3.10;;
40695;SDS011;40425;51.102;17.208;2023-04-03T20:16:02;10.77;;;4.13;;
40695;SDS011;40425;51.102;17.208;2023-04-03T20:21:08;20.97;;;7.87;;
40695;SDS011;40425;51.102;17.208;2023-04-03T20:26:17;7.53;;;1.80;;
40695;SDS011;40425;51.102;17.208;2023-04-03T20:31:23;3.83;;;1.63;;
40695;SDS011;40425;51.102;17.208;2023-04-03T20:36:26;5.63;;;2.07;;
40695;SDS011;40425;51.102;17.208;2023-04-03T20:41:30;7.77;;;2.00;;
40695;SDS011;40425;51.102;17.208;2023-04-03T20:46:37;7.10;;;1.80;;
40695;SDS011;40425;51.102;17.208;2023-04-03T20:51:39;6.97;;;1.67;;
40695;SDS011;40425;51.102;17.208;2023-04-03T20:56:43;9.13;;;1.80;;
40695;SDS011;40425;51.102;17.208;2023-04-03T21:01:49;7.90;;;1.97;;
40695;SDS011;40425;51.102;17.208;2023-04-03T21:23:12;6.13;;;1.43;;
40695;SDS011;40425;51.102;17.208;2023-04-03T21:28:15;6.00;;;1.10;;
40695;SDS011;40425;51.102;17.208;2023-04-03T21:33:17;3.50;;;1.00;;
40695;SDS011;40425;51.102;17.208;2023-04-03T21:38:18;3.10;;;0.97;;
40695;SDS011;40425;51.102;17.208;2023-04-03T21:43:19;5.00;;;1.00;;
40695;SDS011;40425;51.102;17.208;2023-04-03T21:48:20;5.13;;;1.83;;
40695;SDS011;40425;51.102;17.208;2023-04-03T21:53:22;4.17;;;0.87;;
40695;SDS011;40425;51.102;17.208;2023-04-03T21:58:27;5.67;;;1.50;;
40695;SDS011;40425;51.102;17.208;2023-04-03T22:03:29;6.10;;;2.87;;
40695;SDS011;40425;51.102;17.208;2023-04-03T22:08:34;8.23;;;2.10;;
40695;SDS011;40425;51.102;17.208;2023-04-03T22:13:35;5.93;;;1.50;;
40695;SDS011;40425;51.102;17.208;2023-04-03T22:18:36;6.17;;;1.63;;
40695;SDS011;40425;51.102;17.208;2023-04-03T22:23:37;7.47;;;2.27;;
40695;SDS011;40425;51.102;17.208;2023-04-03T22:28:42;5.93;;;2.37;;
40695;SDS011;40425;51.102;17.208;2023-04-03T22:33:44;6.83;;;2.60;;
40695;SDS011;40425;51.102;17.208;2023-04-03T22:38:45;6.67;;;2.90;;
40695;SDS011;40425;51.102;17.208;2023-04-03T22:43:46;8.57;;;2.30;;
40695;SDS011;40425;51.102;17.208;2023-04-03T22:48:47;7.00;;;1.93;;
40695;SDS011;40425;51.102;17.208;2023-04-03T22:53:48;6.70;;;2.50;;
40695;SDS011;40425;51.102;17.208;2023-04-03T22:58:49;5.87;;;2.90;;
40695;SDS011;40425;51.102;17.208;2023-04-03T23:03:50;7.43;;;2.33;;
40695;SDS011;40425;51.102;17.208;2023-04-03T23:08:51;7.57;;;1.83;;
40695;SDS011;40425;51.102;17.208;2023-04-03T23:13:52;10.10;;;2.00;;
40695;SDS011;40425;51.102;17.208;2023-04-03T23:18:53;6.53;;;1.70;;
40695;SDS011;40425;51.102;17.208;2023-04-03T23:23:53;5.33;;;1.93;;
40695;SDS011;40425;51.102;17.208;2023-04-03T23:28:54;4.23;;;1.57;;
40695;SDS011;40425;51.102;17.208;2023-04-03T23:33:55;4.73;;;1.43;;
40695;SDS011;40425;51.102;17.208;2023-04-03T23:38:56;9.93;;;2.87;;
40695;SDS011;40425;51.102;17.208;2023-04-03T23:43:57;6.53;;;1.87;;
40695;SDS011;40425;51.102;17.208;2023-04-03T23:48:58;5.97;;;2.33;;
40695;SDS011;40425;51.102;17.208;2023-04-03T23:53:59;7.20;;;2.80;;
40695;SDS011;40425;51.102;17.208;2023-04-03T23:59:00;6.60;;;2.40;;
